Alt de Parq Ecuestre, Puerto Rico
Current Conditions -  °F | °C
As of 4:56 AM on Saturday 20 Dec 2014 (Local Time) from TJSJ Reporting Station
Few Clouds Few Clouds  
Wind Chill: 74°   Ceiling: Unl
Heat Index: 74°   Visibility: 10mi
Dew Point: 69°   Wind: 0mph
Humidity: 85%   Direction: NA
Pressure: 29.97"   Gusts: NA
Location:  18.4083°N, 65.981°W
Report Text: TJSJ 200856Z 00000KT 10SM FEW028 23/21 A2997 RMK AO2 SLP146 T02330206 55006
Loading
Personal Weather Stations






























Interactive Weather Map New forecast layout! Learn more

10-Day Weather Forecast

Advertisements
Track Severe Weather on mobile